sensor_id;sensor_type;location;lat;lon;timestamp;temperature;humidity
4354;DHT22;11018;51.258;6.806;2023-10-09T00:00:15;14.40;99.90
4354;DHT22;11018;51.258;6.806;2023-10-09T00:02:56;14.40;99.90
4354;DHT22;11018;51.258;6.806;2023-10-09T00:05:25;14.30;99.90
4354;DHT22;11018;51.258;6.806;2023-10-09T00:08:04;14.30;99.90
4354;DHT22;11018;51.258;6.806;2023-10-09T00:10:30;14.20;99.90
4354;DHT22;11018;51.258;6.806;2023-10-09T00:13:10;14.20;99.90
4354;DHT22;11018;51.258;6.806;2023-10-09T00:15:36;14.10;99.90
4354;DHT22;11018;51.258;6.806;2023-10-09T00:18:01;14.10;99.90
4354;DHT22;11018;51.258;6.806;2023-10-09T00:20:36;14.10;99.90
4354;DHT22;11018;51.258;6.806;2023-10-09T00:23:04;14.10;99.90
4354;DHT22;11018;51.258;6.806;2023-10-09T00:25:38;14.00;99.90
4354;DHT22;11018;51.258;6.806;2023-10-09T00:28:10;14.20;99.90
4354;DHT22;11018;51.258;6.806;2023-10-09T00:30:41;14.20;99.90
4354;DHT22;11018;51.258;6.806;2023-10-09T00:33:06;14.10;99.90
4354;DHT22;11018;51.258;6.806;2023-10-09T00:35:37;14.10;99.90
4354;DHT22;11018;51.258;6.806;2023-10-09T00:38:09;14.20;99.90
4354;DHT22;11018;51.258;6.806;2023-10-09T00:40:47;14.20;99.90
4354;DHT22;11018;51.258;6.806;2023-10-09T00:43:21;14.20;99.90
4354;DHT22;11018;51.258;6.806;2023-10-09T00:45:53;14.20;99.90
4354;DHT22;11018;51.258;6.806;2023-10-09T00:48:19;14.10;99.90
4354;DHT22;11018;51.258;6.806;2023-10-09T00:50:57;14.20;99.90
4354;DHT22;11018;51.258;6.806;2023-10-09T00:53:25;14.20;99.90
4354;DHT22;11018;51.258;6.806;2023-10-09T00:56:01;14.20;99.90
4354;DHT22;11018;51.258;6.806;2023-10-09T00:58:36;14.30;99.90
4354;DHT22;11018;51.258;6.806;2023-10-09T01:01:02;14.30;99.90
4354;DHT22;11018;51.258;6.806;2023-10-09T01:03:30;14.30;99.90
4354;DHT22;11018;51.258;6.806;2023-10-09T01:06:01;14.30;99.90
4354;DHT22;11018;51.258;6.806;2023-10-09T01:08:37;14.20;99.90
4354;DHT22;11018;51.258;6.806;2023-10-09T01:13:39;14.30;99.90
4354;DHT22;11018;51.258;6.806;2023-10-09T01:16:19;14.30;99.90
4354;DHT22;11018;51.258;6.806;2023-10-09T01:18:54;14.40;99.90
4354;DHT22;11018;51.258;6.806;2023-10-09T01:21:23;14.40;99.90
4354;DHT22;11018;51.258;6.806;2023-10-09T01:23:50;14.50;99.90
4354;DHT22;11018;51.258;6.806;2023-10-09T01:26:31;14.40;99.90
4354;DHT22;11018;51.258;6.806;2023-10-09T01:29:05;14.40;99.90
4354;DHT22;11018;51.258;6.806;2023-10-09T01:31:36;14.30;99.90
4354;DHT22;11018;51.258;6.806;2023-10-09T01:34:09;14.30;99.90
4354;DHT22;11018;51.258;6.806;2023-10-09T01:36:39;14.30;99.90
4354;DHT22;11018;51.258;6.806;2023-10-09T01:39:05;14.30;99.90
4354;DHT22;11018;51.258;6.806;2023-10-09T01:41:51;14.40;99.90
4354;DHT22;11018;51.258;6.806;2023-10-09T01:44:31;14.40;99.90
4354;DHT22;11018;51.258;6.806;2023-10-09T01:47:06;14.40;99.90
4354;DHT22;11018;51.258;6.806;2023-10-09T01:49:42;14.40;99.90
4354;DHT22;11018;51.258;6.806;2023-10-09T01:52:11;14.40;99.90
4354;DHT22;11018;51.258;6.806;2023-10-09T01:54:41;14.40;99.90
4354;DHT22;11018;51.258;6.806;2023-10-09T01:57:08;14.40;99.90
4354;DHT22;11018;51.258;6.806;2023-10-09T01:59:44;14.30;99.90
4354;DHT22;11018;51.258;6.806;2023-10-09T02:02:21;14.40;99.90
4354;DHT22;11018;51.258;6.806;2023-10-09T02:05:04;14.40;99.90
4354;DHT22;11018;51.258;6.806;2023-10-09T02:07:40;14.40;99.90
4354;DHT22;11018;51.258;6.806;2023-10-09T02:10:15;14.40;99.90
4354;DHT22;11018;51.258;6.806;2023-10-09T02:13:04;14.40;99.90
4354;DHT22;11018;51.258;6.806;2023-10-09T02:15:36;14.50;99.90
4354;DHT22;11018;51.258;6.806;2023-10-09T02:18:09;14.50;99.90
4354;DHT22;11018;51.258;6.806;2023-10-09T02:21:06;14.40;99.90
4354;DHT22;11018;51.258;6.806;2023-10-09T02:23:33;14.50;99.90
4354;DHT22;11018;51.258;6.806;2023-10-09T02:26:28;14.50;99.90
4354;DHT22;11018;51.258;6.806;2023-10-09T02:29:11;14.50;99.90
4354;DHT22;11018;51.258;6.806;2023-10-09T02:31:40;14.50;99.90
4354;DHT22;11018;51.258;6.806;2023-10-09T02:34:06;14.50;99.90
4354;DHT22;11018;51.258;6.806;2023-10-09T02:36:33;14.50;99.90
4354;DHT22;11018;51.258;6.806;2023-10-09T02:39:11;14.50;99.90
4354;DHT22;11018;51.258;6.806;2023-10-09T02:41:53;14.40;99.90
4354;DHT22;11018;51.258;6.806;2023-10-09T02:44:23;14.40;99.90
4354;DHT22;11018;51.258;6.806;2023-10-09T02:46:52;14.50;99.90
4354;DHT22;11018;51.258;6.806;2023-10-09T02:49:23;14.50;99.90
4354;DHT22;11018;51.258;6.806;2023-10-09T02:51:48;14.40;99.90
4354;DHT22;11018;51.258;6.806;2023-10-09T02:54:18;14.50;99.90
4354;DHT22;11018;51.258;6.806;2023-10-09T02:56:45;14.50;99.90
4354;DHT22;11018;51.258;6.806;2023-10-09T02:59:13;14.50;99.90
4354;DHT22;11018;51.258;6.806;2023-10-09T03:01:40;14.50;99.90
4354;DHT22;11018;51.258;6.806;2023-10-09T03:04:07;14.50;99.90
4354;DHT22;11018;51.258;6.806;2023-10-09T03:06:36;14.60;99.90
4354;DHT22;11018;51.258;6.806;2023-10-09T03:09:11;14.60;99.90
4354;DHT22;11018;51.258;6.806;2023-10-09T03:11:47;14.60;99.90
4354;DHT22;11018;51.258;6.806;2023-10-09T03:14:14;14.60;99.90
4354;DHT22;11018;51.258;6.806;2023-10-09T03:16:41;14.60;99.90
4354;DHT22;11018;51.258;6.806;2023-10-09T03:19:06;14.70;99.90
4354;DHT22;11018;51.258;6.806;2023-10-09T03:21:32;14.70;99.90
4354;DHT22;11018;51.258;6.806;2023-10-09T03:23:58;14.80;99.90
4354;DHT22;11018;51.258;6.806;2023-10-09T03:26:23;14.80;99.90
4354;DHT22;11018;51.258;6.806;2023-10-09T03:28:51;14.80;99.90
4354;DHT22;11018;51.258;6.806;2023-10-09T03:31:18;14.90;99.90
4354;DHT22;11018;51.258;6.806;2023-10-09T03:33:44;14.80;99.90
4354;DHT22;11018;51.258;6.806;2023-10-09T03:36:09;14.80;99.90
4354;DHT22;11018;51.258;6.806;2023-10-09T03:38:36;14.80;99.90
4354;DHT22;11018;51.258;6.806;2023-10-09T03:41:05;14.80;99.90
4354;DHT22;11018;51.258;6.806;2023-10-09T03:43:35;14.80;99.90
4354;DHT22;11018;51.258;6.806;2023-10-09T03:46:05;14.80;99.90
4354;DHT22;11018;51.258;6.806;2023-10-09T03:48:34;14.90;99.90
4354;DHT22;11018;51.258;6.806;2023-10-09T03:51:01;14.90;99.90
4354;DHT22;11018;51.258;6.806;2023-10-09T03:53:39;14.90;99.90
4354;DHT22;11018;51.258;6.806;2023-10-09T03:56:08;14.90;99.90
4354;DHT22;11018;51.258;6.806;2023-10-09T03:58:42;14.90;99.90
4354;DHT22;11018;51.258;6.806;2023-10-09T04:01:13;14.80;99.90
4354;DHT22;11018;51.258;6.806;2023-10-09T04:03:49;14.90;99.90
4354;DHT22;11018;51.258;6.806;2023-10-09T04:06:15;14.90;99.90
4354;DHT22;11018;51.258;6.806;2023-10-09T04:08:43;14.90;99.90
4354;DHT22;11018;51.258;6.806;2023-10-09T04:11:14;14.90;99.90
4354;DHT22;11018;51.258;6.806;2023-10-09T04:13:44;14.90;99.90
4354;DHT22;11018;51.258;6.806;2023-10-09T04:16:12;14.90;99.90
4354;DHT22;11018;51.258;6.806;2023-10-09T04:18:57;14.90;99.90
4354;DHT22;11018;51.258;6.806;2023-10-09T04:21:26;14.90;99.90
4354;DHT22;11018;51.258;6.806;2023-10-09T04:24:08;14.90;99.90
4354;DHT22;11018;51.258;6.806;2023-10-09T04:26:38;14.90;99.90
4354;DHT22;11018;51.258;6.806;2023-10-09T04:29:10;14.80;99.90
4354;DHT22;11018;51.258;6.806;2023-10-09T04:31:46;14.90;99.90
4354;DHT22;11018;51.258;6.806;2023-10-09T04:34:20;14.90;99.90
4354;DHT22;11018;51.258;6.806;2023-10-09T04:37:01;15.00;99.90
4354;DHT22;11018;51.258;6.806;2023-10-09T04:39:27;15.00;99.90
4354;DHT22;11018;51.258;6.806;2023-10-09T04:41:57;15.00;99.90
4354;DHT22;11018;51.258;6.806;2023-10-09T04:44:44;15.00;99.90
4354;DHT22;11018;51.258;6.806;2023-10-09T04:47:26;14.90;99.90
4354;DHT22;11018;51.258;6.806;2023-10-09T04:50:10;14.90;99.90
4354;DHT22;11018;51.258;6.806;2023-10-09T04:52:54;14.90;99.90
4354;DHT22;11018;51.258;6.806;2023-10-09T04:55:20;14.90;99.90
4354;DHT22;11018;51.258;6.806;2023-10-09T04:57:50;15.00;99.90
4354;DHT22;11018;51.258;6.806;2023-10-09T05:00:34;15.00;99.90
4354;DHT22;11018;51.258;6.806;2023-10-09T05:03:01;15.00;99.90
4354;DHT22;11018;51.258;6.806;2023-10-09T05:05:38;15.00;99.90
4354;DHT22;11018;51.258;6.806;2023-10-09T05:08:14;15.00;99.90
4354;DHT22;11018;51.258;6.806;2023-10-09T05:13:29;15.00;99.90
4354;DHT22;11018;51.258;6.806;2023-10-09T05:16:04;15.00;99.90
4354;DHT22;11018;51.258;6.806;2023-10-09T05:18:30;14.90;99.90
4354;DHT22;11018;51.258;6.806;2023-10-09T05:21:02;14.90;99.90
4354;DHT22;11018;51.258;6.806;2023-10-09T05:23:47;14.90;99.90
4354;DHT22;11018;51.258;6.806;2023-10-09T05:26:36;15.00;99.90
4354;DHT22;11018;51.258;6.806;2023-10-09T05:29:18;15.10;99.90
4354;DHT22;11018;51.258;6.806;2023-10-09T05:32:04;15.10;99.90
4354;DHT22;11018;51.258;6.806;2023-10-09T05:34:41;15.10;99.90
4354;DHT22;11018;51.258;6.806;2023-10-09T05:37:26;15.00;99.90
4354;DHT22;11018;51.258;6.806;2023-10-09T05:39:58;15.00;99.90
4354;DHT22;11018;51.258;6.806;2023-10-09T05:42:31;15.10;99.90
4354;DHT22;11018;51.258;6.806;2023-10-09T05:45:07;15.00;99.90
4354;DHT22;11018;51.258;6.806;2023-10-09T05:47:52;15.10;99.90
4354;DHT22;11018;51.258;6.806;2023-10-09T05:50:30;15.40;99.90
4354;DHT22;11018;51.258;6.806;2023-10-09T05:53:00;15.50;97.40
4354;DHT22;11018;51.258;6.806;2023-10-09T05:55:29;15.40;97.60
4354;DHT22;11018;51.258;6.806;2023-10-09T05:58:33;15.40;99.40
4354;DHT22;11018;51.258;6.806;2023-10-09T06:01:21;15.30;99.90
4354;DHT22;11018;51.258;6.806;2023-10-09T06:04:06;15.30;99.90
4354;DHT22;11018;51.258;6.806;2023-10-09T06:06:45;15.40;98.50
4354;DHT22;11018;51.258;6.806;2023-10-09T06:09:12;15.50;97.80
4354;DHT22;11018;51.258;6.806;2023-10-09T06:11:45;15.70;95.20
4354;DHT22;11018;51.258;6.806;2023-10-09T06:14:15;15.70;93.10
4354;DHT22;11018;51.258;6.806;2023-10-09T06:16:53;15.90;86.40
4354;DHT22;11018;51.258;6.806;2023-10-09T06:19:37;16.10;83.60
4354;DHT22;11018;51.258;6.806;2023-10-09T06:22:09;16.20;80.00
4354;DHT22;11018;51.258;6.806;2023-10-09T06:24:38;16.40;78.30
4354;DHT22;11018;51.258;6.806;2023-10-09T06:27:23;16.40;77.70
4354;DHT22;11018;51.258;6.806;2023-10-09T06:30:11;16.50;75.30
4354;DHT22;11018;51.258;6.806;2023-10-09T06:32:49;16.50;76.70
4354;DHT22;11018;51.258;6.806;2023-10-09T06:35:20;16.80;70.80
4354;DHT22;11018;51.258;6.806;2023-10-09T06:37:57;16.80;70.50
4354;DHT22;11018;51.258;6.806;2023-10-09T06:40:36;16.90;69.50
4354;DHT22;11018;51.258;6.806;2023-10-09T06:43:19;16.90;69.20
4354;DHT22;11018;51.258;6.806;2023-10-09T06:45:51;17.00;68.10
4354;DHT22;11018;51.258;6.806;2023-10-09T06:48:35;17.10;66.00
4354;DHT22;11018;51.258;6.806;2023-10-09T06:51:05;17.10;66.00
4354;DHT22;11018;51.258;6.806;2023-10-09T06:53:53;17.10;67.50
4354;DHT22;11018;51.258;6.806;2023-10-09T06:56:28;17.10;66.00
4354;DHT22;11018;51.258;6.806;2023-10-09T06:58:55;17.20;65.30
4354;DHT22;11018;51.258;6.806;2023-10-09T07:01:21;17.30;65.10
4354;DHT22;11018;51.258;6.806;2023-10-09T07:03:55;17.20;65.30
4354;DHT22;11018;51.258;6.806;2023-10-09T07:06:41;17.40;62.80
4354;DHT22;11018;51.258;6.806;2023-10-09T07:09:07;17.40;61.70
4354;DHT22;11018;51.258;6.806;2023-10-09T07:11:33;17.40;61.90
4354;DHT22;11018;51.258;6.806;2023-10-09T07:14:28;17.40;61.20
4354;DHT22;11018;51.258;6.806;2023-10-09T07:17:02;17.50;61.60
4354;DHT22;11018;51.258;6.806;2023-10-09T07:19:46;17.50;60.90
4354;DHT22;11018;51.258;6.806;2023-10-09T07:22:14;17.70;60.00
4354;DHT22;11018;51.258;6.806;2023-10-09T07:24:46;17.80;57.00
4354;DHT22;11018;51.258;6.806;2023-10-09T07:27:29;17.90;56.80
4354;DHT22;11018;51.258;6.806;2023-10-09T07:30:14;18.10;55.10
4354;DHT22;11018;51.258;6.806;2023-10-09T07:33:12;18.10;54.50
4354;DHT22;11018;51.258;6.806;2023-10-09T07:35:42;18.30;53.60
4354;DHT22;11018;51.258;6.806;2023-10-09T07:40:38;18.40;52.30
4354;DHT22;11018;51.258;6.806;2023-10-09T07:43:23;18.40;52.00
4354;DHT22;11018;51.258;6.806;2023-10-09T07:45:55;18.50;52.00
4354;DHT22;11018;51.258;6.806;2023-10-09T07:48:23;18.60;50.80
4354;DHT22;11018;51.258;6.806;2023-10-09T07:50:52;18.50;52.00
4354;DHT22;11018;51.258;6.806;2023-10-09T07:53:23;18.40;52.10
4354;DHT22;11018;51.258;6.806;2023-10-09T07:56:08;18.40;53.10
4354;DHT22;11018;51.258;6.806;2023-10-09T07:58:34;18.40;54.10
4354;DHT22;11018;51.258;6.806;2023-10-09T08:01:12;18.40;53.80
4354;DHT22;11018;51.258;6.806;2023-10-09T08:03:56;18.40;53.50
4354;DHT22;11018;51.258;6.806;2023-10-09T08:06:30;18.60;52.30
4354;DHT22;11018;51.258;6.806;2023-10-09T08:09:06;18.60;51.60
4354;DHT22;11018;51.258;6.806;2023-10-09T08:11:37;18.60;51.30
4354;DHT22;11018;51.258;6.806;2023-10-09T08:14:07;18.60;52.00
4354;DHT22;11018;51.258;6.806;2023-10-09T08:16:52;18.60;51.90
4354;DHT22;11018;51.258;6.806;2023-10-09T08:19:40;18.60;51.20
4354;DHT22;11018;51.258;6.806;2023-10-09T08:22:26;18.70;51.00
4354;DHT22;11018;51.258;6.806;2023-10-09T08:24:52;18.80;49.70
4354;DHT22;11018;51.258;6.806;2023-10-09T08:27:27;19.20;47.40
4354;DHT22;11018;51.258;6.806;2023-10-09T08:30:05;19.20;46.40
4354;DHT22;11018;51.258;6.806;2023-10-09T08:32:48;19.50;45.10
4354;DHT22;11018;51.258;6.806;2023-10-09T08:35:30;19.50;44.80
4354;DHT22;11018;51.258;6.806;2023-10-09T08:37:58;19.40;44.90
4354;DHT22;11018;51.258;6.806;2023-10-09T08:40:32;19.40;45.40
4354;DHT22;11018;51.258;6.806;2023-10-09T08:43:19;19.70;44.60
4354;DHT22;11018;51.258;6.806;2023-10-09T08:45:54;19.60;45.00
4354;DHT22;11018;51.258;6.806;2023-10-09T08:48:27;19.50;45.70
4354;DHT22;11018;51.258;6.806;2023-10-09T08:50:55;19.40;46.80
4354;DHT22;11018;51.258;6.806;2023-10-09T08:53:22;19.30;47.50
4354;DHT22;11018;51.258;6.806;2023-10-09T08:55:49;19.30;47.40
4354;DHT22;11018;51.258;6.806;2023-10-09T08:58:17;19.30;48.30
4354;DHT22;11018;51.258;6.806;2023-10-09T09:01:02;19.30;47.40
4354;DHT22;11018;51.258;6.806;2023-10-09T09:03:40;19.50;47.30
4354;DHT22;11018;51.258;6.806;2023-10-09T09:06:06;19.50;46.80
4354;DHT22;11018;51.258;6.806;2023-10-09T09:08:33;19.40;47.60
4354;DHT22;11018;51.258;6.806;2023-10-09T09:11:09;19.50;48.50
4354;DHT22;11018;51.258;6.806;2023-10-09T09:13:39;19.50;48.40
4354;DHT22;11018;51.258;6.806;2023-10-09T09:18:50;19.90;46.80
4354;DHT22;11018;51.258;6.806;2023-10-09T09:21:29;19.90;45.20
4354;DHT22;11018;51.258;6.806;2023-10-09T09:23:59;20.00;44.90
4354;DHT22;11018;51.258;6.806;2023-10-09T09:26:38;20.10;43.30
4354;DHT22;11018;51.258;6.806;2023-10-09T09:29:11;20.30;43.50
4354;DHT22;11018;51.258;6.806;2023-10-09T09:31:37;20.50;42.10
4354;DHT22;11018;51.258;6.806;2023-10-09T09:34:07;20.80;41.20
4354;DHT22;11018;51.258;6.806;2023-10-09T09:36:57;21.10;38.60
4354;DHT22;11018;51.258;6.806;2023-10-09T09:39:26;21.40;37.20
4354;DHT22;11018;51.258;6.806;2023-10-09T09:41:57;21.40;37.20
4354;DHT22;11018;51.258;6.806;2023-10-09T09:44:30;21.30;36.50
4354;DHT22;11018;51.258;6.806;2023-10-09T09:47:00;21.40;35.60
4354;DHT22;11018;51.258;6.806;2023-10-09T09:49:30;21.20;35.60
4354;DHT22;11018;51.258;6.806;2023-10-09T09:52:03;21.00;36.20
4354;DHT22;11018;51.258;6.806;2023-10-09T09:54:38;20.90;36.80
4354;DHT22;11018;51.258;6.806;2023-10-09T09:57:05;20.90;36.90
4354;DHT22;11018;51.258;6.806;2023-10-09T09:59:40;20.90;36.50
4354;DHT22;11018;51.258;6.806;2023-10-09T10:02:10;20.90;37.20
4354;DHT22;11018;51.258;6.806;2023-10-09T10:04:43;21.00;36.90
4354;DHT22;11018;51.258;6.806;2023-10-09T10:07:15;21.00;35.90
4354;DHT22;11018;51.258;6.806;2023-10-09T10:09:43;21.10;35.60
4354;DHT22;11018;51.258;6.806;2023-10-09T10:12:10;21.30;34.90
4354;DHT22;11018;51.258;6.806;2023-10-09T10:14:55;21.30;34.30
4354;DHT22;11018;51.258;6.806;2023-10-09T10:18:07;21.20;34.80
4354;DHT22;11018;51.258;6.806;2023-10-09T10:20:32;21.30;34.10
4354;DHT22;11018;51.258;6.806;2023-10-09T10:23:18;21.50;34.00
4354;DHT22;11018;51.258;6.806;2023-10-09T10:25:45;21.60;33.30
4354;DHT22;11018;51.258;6.806;2023-10-09T10:28:24;21.60;33.30
4354;DHT22;11018;51.258;6.806;2023-10-09T10:31:11;21.60;33.10
4354;DHT22;11018;51.258;6.806;2023-10-09T10:36:24;21.70;32.80
4354;DHT22;11018;51.258;6.806;2023-10-09T10:39:04;21.60;32.90
4354;DHT22;11018;51.258;6.806;2023-10-09T10:41:30;21.60;32.90
4354;DHT22;11018;51.258;6.806;2023-10-09T10:44:02;21.80;33.70
4354;DHT22;11018;51.258;6.806;2023-10-09T10:46:46;21.70;32.90
4354;DHT22;11018;51.258;6.806;2023-10-09T10:49:18;21.60;33.30
4354;DHT22;11018;51.258;6.806;2023-10-09T10:51:48;21.40;33.20
4354;DHT22;11018;51.258;6.806;2023-10-09T10:54:24;21.30;33.50
4354;DHT22;11018;51.258;6.806;2023-10-09T10:56:52;21.40;33.60
4354;DHT22;11018;51.258;6.806;2023-10-09T10:59:18;21.50;33.40
4354;DHT22;11018;51.258;6.806;2023-10-09T11:01:53;21.60;32.50
4354;DHT22;11018;51.258;6.806;2023-10-09T11:04:24;21.40;33.10
4354;DHT22;11018;51.258;6.806;2023-10-09T11:07:00;21.40;32.80
4354;DHT22;11018;51.258;6.806;2023-10-09T11:09:52;21.40;33.30
4354;DHT22;11018;51.258;6.806;2023-10-09T11:12:26;21.30;33.60
4354;DHT22;11018;51.258;6.806;2023-10-09T11:15:06;21.40;33.60
4354;DHT22;11018;51.258;6.806;2023-10-09T11:18:03;21.50;33.30
4354;DHT22;11018;51.258;6.806;2023-10-09T11:20:45;21.50;33.10
4354;DHT22;11018;51.258;6.806;2023-10-09T11:23:41;21.40;33.10
4354;DHT22;11018;51.258;6.806;2023-10-09T11:26:33;21.70;32.90
4354;DHT22;11018;51.258;6.806;2023-10-09T11:29:13;21.80;32.40
4354;DHT22;11018;51.258;6.806;2023-10-09T11:32:05;21.80;32.50
4354;DHT22;11018;51.258;6.806;2023-10-09T11:34:34;22.00;32.00
4354;DHT22;11018;51.258;6.806;2023-10-09T11:39:37;21.90;32.80
4354;DHT22;11018;51.258;6.806;2023-10-09T11:42:18;21.90;33.00
4354;DHT22;11018;51.258;6.806;2023-10-09T11:45:05;21.80;32.80
4354;DHT22;11018;51.258;6.806;2023-10-09T11:47:46;21.80;32.80
4354;DHT22;11018;51.258;6.806;2023-10-09T11:50:42;21.90;32.70
4354;DHT22;11018;51.258;6.806;2023-10-09T11:53:17;21.90;32.30
4354;DHT22;11018;51.258;6.806;2023-10-09T11:55:58;21.90;32.20
4354;DHT22;11018;51.258;6.806;2023-10-09T11:58:24;22.20;31.80
4354;DHT22;11018;51.258;6.806;2023-10-09T12:00:57;22.20;31.90
4354;DHT22;11018;51.258;6.806;2023-10-09T12:03:27;22.20;31.80
4354;DHT22;11018;51.258;6.806;2023-10-09T12:05:56;22.10;31.80
4354;DHT22;11018;51.258;6.806;2023-10-09T12:08:23;22.30;31.50
4354;DHT22;11018;51.258;6.806;2023-10-09T12:10:54;22.40;30.90
4354;DHT22;11018;51.258;6.806;2023-10-09T12:13:22;22.60;31.10
4354;DHT22;11018;51.258;6.806;2023-10-09T12:15:49;22.70;30.30
4354;DHT22;11018;51.258;6.806;2023-10-09T12:18:18;22.70;30.30
4354;DHT22;11018;51.258;6.806;2023-10-09T12:20:45;22.60;30.10
4354;DHT22;11018;51.258;6.806;2023-10-09T12:23:17;22.50;30.40
4354;DHT22;11018;51.258;6.806;2023-10-09T12:25:43;22.60;30.80
4354;DHT22;11018;51.258;6.806;2023-10-09T12:28:12;22.60;30.40
4354;DHT22;11018;51.258;6.806;2023-10-09T12:30:38;22.40;29.90
4354;DHT22;11018;51.258;6.806;2023-10-09T12:33:08;22.30;30.90
4354;DHT22;11018;51.258;6.806;2023-10-09T12:35:38;22.10;31.10
4354;DHT22;11018;51.258;6.806;2023-10-09T12:38:05;22.00;31.20
4354;DHT22;11018;51.258;6.806;2023-10-09T12:40:39;22.00;31.00
4354;DHT22;11018;51.258;6.806;2023-10-09T12:43:06;21.90;31.40
4354;DHT22;11018;51.258;6.806;2023-10-09T12:45:41;22.10;31.50
4354;DHT22;11018;51.258;6.806;2023-10-09T12:48:06;22.20;31.30
4354;DHT22;11018;51.258;6.806;2023-10-09T12:50:35;22.30;30.90
4354;DHT22;11018;51.258;6.806;2023-10-09T12:53:07;22.20;31.00
4354;DHT22;11018;51.258;6.806;2023-10-09T12:55:37;22.20;31.30
4354;DHT22;11018;51.258;6.806;2023-10-09T12:58:08;22.20;31.60
4354;DHT22;11018;51.258;6.806;2023-10-09T13:00:37;22.20;31.60
4354;DHT22;11018;51.258;6.806;2023-10-09T13:03:10;22.30;31.10
4354;DHT22;11018;51.258;6.806;2023-10-09T13:05:50;22.20;30.90
4354;DHT22;11018;51.258;6.806;2023-10-09T13:10:51;22.10;32.30
4354;DHT22;11018;51.258;6.806;2023-10-09T13:13:27;22.20;31.80
4354;DHT22;11018;51.258;6.806;2023-10-09T13:16:13;22.20;31.80
4354;DHT22;11018;51.258;6.806;2023-10-09T13:18:46;22.20;31.60
4354;DHT22;11018;51.258;6.806;2023-10-09T13:21:22;22.20;31.30
4354;DHT22;11018;51.258;6.806;2023-10-09T13:23:49;22.20;31.40
4354;DHT22;11018;51.258;6.806;2023-10-09T13:26:20;22.30;30.60
4354;DHT22;11018;51.258;6.806;2023-10-09T13:28:52;22.40;30.90
4354;DHT22;11018;51.258;6.806;2023-10-09T13:31:18;22.30;30.50
4354;DHT22;11018;51.258;6.806;2023-10-09T13:33:46;22.10;30.60
4354;DHT22;11018;51.258;6.806;2023-10-09T13:36:13;22.20;30.60
4354;DHT22;11018;51.258;6.806;2023-10-09T13:39:02;22.50;30.20
4354;DHT22;11018;51.258;6.806;2023-10-09T13:41:48;22.60;28.80
4354;DHT22;11018;51.258;6.806;2023-10-09T13:44:14;22.60;29.40
4354;DHT22;11018;51.258;6.806;2023-10-09T13:46:40;22.40;29.70
4354;DHT22;11018;51.258;6.806;2023-10-09T13:49:10;22.20;30.50
4354;DHT22;11018;51.258;6.806;2023-10-09T13:51:42;22.20;30.70
4354;DHT22;11018;51.258;6.806;2023-10-09T13:54:11;22.10;31.00
4354;DHT22;11018;51.258;6.806;2023-10-09T13:56:45;22.20;31.20
4354;DHT22;11018;51.258;6.806;2023-10-09T13:59:10;22.20;31.10
4354;DHT22;11018;51.258;6.806;2023-10-09T14:01:39;22.50;30.60
4354;DHT22;11018;51.258;6.806;2023-10-09T14:04:05;22.50;30.70
4354;DHT22;11018;51.258;6.806;2023-10-09T14:06:34;22.30;31.20
4354;DHT22;11018;51.258;6.806;2023-10-09T14:09:01;22.50;30.70
4354;DHT22;11018;51.258;6.806;2023-10-09T14:11:34;23.00;29.60
4354;DHT22;11018;51.258;6.806;2023-10-09T14:14:05;23.20;28.70
4354;DHT22;11018;51.258;6.806;2023-10-09T14:16:36;22.90;29.50
4354;DHT22;11018;51.258;6.806;2023-10-09T14:19:02;22.90;29.90
4354;DHT22;11018;51.258;6.806;2023-10-09T14:21:33;22.70;30.00
4354;DHT22;11018;51.258;6.806;2023-10-09T14:24:03;22.60;30.80
4354;DHT22;11018;51.258;6.806;2023-10-09T14:26:43;22.70;30.70
4354;DHT22;11018;51.258;6.806;2023-10-09T14:29:11;22.80;30.40
4354;DHT22;11018;51.258;6.806;2023-10-09T14:31:44;22.80;30.00
4354;DHT22;11018;51.258;6.806;2023-10-09T14:34:14;23.10;29.50
4354;DHT22;11018;51.258;6.806;2023-10-09T14:36:40;23.10;29.50
4354;DHT22;11018;51.258;6.806;2023-10-09T14:39:09;23.00;29.60
4354;DHT22;11018;51.258;6.806;2023-10-09T14:41:39;23.00;29.90
4354;DHT22;11018;51.258;6.806;2023-10-09T14:44:05;23.10;29.80
4354;DHT22;11018;51.258;6.806;2023-10-09T14:46:31;23.20;29.80
4354;DHT22;11018;51.258;6.806;2023-10-09T14:48:57;23.10;29.50
4354;DHT22;11018;51.258;6.806;2023-10-09T14:51:23;23.10;29.70
4354;DHT22;11018;51.258;6.806;2023-10-09T14:53:55;23.30;29.40
4354;DHT22;11018;51.258;6.806;2023-10-09T14:56:30;23.30;28.90
4354;DHT22;11018;51.258;6.806;2023-10-09T14:58:57;23.00;30.50
4354;DHT22;11018;51.258;6.806;2023-10-09T15:01:24;22.70;31.50
4354;DHT22;11018;51.258;6.806;2023-10-09T15:03:50;22.80;31.20
4354;DHT22;11018;51.258;6.806;2023-10-09T15:06:20;22.60;31.20
4354;DHT22;11018;51.258;6.806;2023-10-09T15:08:46;22.50;31.70
4354;DHT22;11018;51.258;6.806;2023-10-09T15:11:12;22.50;31.70
4354;DHT22;11018;51.258;6.806;2023-10-09T15:13:37;22.40;31.70
4354;DHT22;11018;51.258;6.806;2023-10-09T15:16:04;22.30;32.10
4354;DHT22;11018;51.258;6.806;2023-10-09T15:18:30;22.40;32.10
4354;DHT22;11018;51.258;6.806;2023-10-09T15:20:58;22.50;32.20
4354;DHT22;11018;51.258;6.806;2023-10-09T15:23:25;22.80;31.70
4354;DHT22;11018;51.258;6.806;2023-10-09T15:25:50;22.90;31.00
4354;DHT22;11018;51.258;6.806;2023-10-09T15:28:19;23.40;29.90
4354;DHT22;11018;51.258;6.806;2023-10-09T15:30:44;23.60;29.50
4354;DHT22;11018;51.258;6.806;2023-10-09T15:33:14;23.50;29.00
4354;DHT22;11018;51.258;6.806;2023-10-09T15:35:44;23.60;28.80
4354;DHT22;11018;51.258;6.806;2023-10-09T15:38:15;23.60;28.60
4354;DHT22;11018;51.258;6.806;2023-10-09T15:40:41;23.40;28.80
4354;DHT22;11018;51.258;6.806;2023-10-09T15:43:09;23.30;29.30
4354;DHT22;11018;51.258;6.806;2023-10-09T15:45:43;23.00;29.90
4354;DHT22;11018;51.258;6.806;2023-10-09T15:48:13;22.70;31.00
4354;DHT22;11018;51.258;6.806;2023-10-09T15:50:38;22.60;31.60
4354;DHT22;11018;51.258;6.806;2023-10-09T15:53:09;22.40;32.00
4354;DHT22;11018;51.258;6.806;2023-10-09T15:55:35;22.20;32.90
4354;DHT22;11018;51.258;6.806;2023-10-09T15:58:03;22.10;33.30
4354;DHT22;11018;51.258;6.806;2023-10-09T16:00:29;21.90;34.00
4354;DHT22;11018;51.258;6.806;2023-10-09T16:02:56;21.70;34.60
4354;DHT22;11018;51.258;6.806;2023-10-09T16:05:22;21.50;35.90
4354;DHT22;11018;51.258;6.806;2023-10-09T16:07:52;21.30;36.20
4354;DHT22;11018;51.258;6.806;2023-10-09T16:10:20;21.20;36.70
4354;DHT22;11018;51.258;6.806;2023-10-09T16:12:46;21.10;37.20
4354;DHT22;11018;51.258;6.806;2023-10-09T16:15:12;21.10;37.40
4354;DHT22;11018;51.258;6.806;2023-10-09T16:17:40;21.00;38.00
4354;DHT22;11018;51.258;6.806;2023-10-09T16:20:08;20.90;38.50
4354;DHT22;11018;51.258;6.806;2023-10-09T16:22:39;20.70;39.30
4354;DHT22;11018;51.258;6.806;2023-10-09T16:25:05;20.60;39.60
4354;DHT22;11018;51.258;6.806;2023-10-09T16:27:37;20.50;40.00
4354;DHT22;11018;51.258;6.806;2023-10-09T16:30:06;20.60;39.60
4354;DHT22;11018;51.258;6.806;2023-10-09T16:32:38;20.50;39.90
4354;DHT22;11018;51.258;6.806;2023-10-09T16:35:03;20.50;40.60
4354;DHT22;11018;51.258;6.806;2023-10-09T16:37:30;20.30;40.80
4354;DHT22;11018;51.258;6.806;2023-10-09T16:39:59;20.30;40.70